Bertolinia, Brazil
Current Conditions -  °F | °C
As of 2:00 PM on Thursday 27 Nov 2014 (Local Time) from SBTE Reporting Station
Scattered Clouds Scattered Clouds  
Wind Chill: 99°   Ceiling: Unl
Heat Index: 99°   Visibility: 6mi
Dew Point: 57°   Wind: 7mph
Humidity: 25%   Direction: 70°ENE
Pressure: 29.77"   Gusts: NA
Location:  7.64°S, 43.95°W
Report Text: SBTE 271700Z 07006KT 9999 SCT030 37/14 Q1008
Loading
Personal Weather Stations






























Interactive Weather Map New forecast layout! Learn more

10-Day Weather Forecast

Advertisements
Track Severe Weather on mobile